sensor_id;sensor_type;location;lat;lon;timestamp;P1;durP1;ratioP1;P2;durP2;ratioP2
51738;SDS011;37815;52.692;6.226;2022-08-04T00:02:02;3.70;;;1.80;;
51738;SDS011;37815;52.692;6.226;2022-08-04T00:07:21;4.57;;;1.50;;
51738;SDS011;37815;52.692;6.226;2022-08-04T00:12:28;4.00;;;1.80;;
51738;SDS011;37815;52.692;6.226;2022-08-04T00:17:39;5.43;;;1.85;;
51738;SDS011;37815;52.692;6.226;2022-08-04T00:22:54;3.42;;;2.10;;
51738;SDS011;37815;52.692;6.226;2022-08-04T00:27:56;2.65;;;1.52;;
51738;SDS011;37815;52.692;6.226;2022-08-04T00:33:00;2.75;;;1.77;;
51738;SDS011;37815;52.692;6.226;2022-08-04T00:38:02;2.45;;;1.60;;
51738;SDS011;37815;52.692;6.226;2022-08-04T00:43:14;2.95;;;1.45;;
51738;SDS011;37815;52.692;6.226;2022-08-04T00:48:45;3.28;;;1.55;;
51738;SDS011;37815;52.692;6.226;2022-08-04T01:05:10;2.70;;;1.30;;
51738;SDS011;37815;52.692;6.226;2022-08-04T01:10:22;2.58;;;1.50;;
51738;SDS011;37815;52.692;6.226;2022-08-04T01:15:48;4.53;;;2.03;;
51738;SDS011;37815;52.692;6.226;2022-08-04T01:32:00;5.65;;;1.95;;
51738;SDS011;37815;52.692;6.226;2022-08-04T01:42:33;2.92;;;1.90;;
51738;SDS011;37815;52.692;6.226;2022-08-04T01:47:35;2.63;;;1.60;;
51738;SDS011;37815;52.692;6.226;2022-08-04T01:52:38;3.40;;;1.90;;
51738;SDS011;37815;52.692;6.226;2022-08-04T01:57:41;5.88;;;1.98;;
51738;SDS011;37815;52.692;6.226;2022-08-04T02:02:45;2.55;;;1.70;;
51738;SDS011;37815;52.692;6.226;2022-08-04T02:08:00;2.85;;;1.88;;
51738;SDS011;37815;52.692;6.226;2022-08-04T02:18:55;3.50;;;2.38;;
51738;SDS011;37815;52.692;6.226;2022-08-04T02:24:00;4.18;;;1.90;;
51738;SDS011;37815;52.692;6.226;2022-08-04T02:29:18;5.72;;;2.10;;
51738;SDS011;37815;52.692;6.226;2022-08-04T02:34:40;3.47;;;2.10;;
51738;SDS011;37815;52.692;6.226;2022-08-04T02:39:58;3.17;;;2.10;;
51738;SDS011;37815;52.692;6.226;2022-08-04T02:45:01;5.38;;;2.28;;
51738;SDS011;37815;52.692;6.226;2022-08-04T02:50:05;3.47;;;2.05;;
51738;SDS011;37815;52.692;6.226;2022-08-04T02:55:17;7.82;;;2.30;;
51738;SDS011;37815;52.692;6.226;2022-08-04T03:00:19;3.10;;;2.17;;
51738;SDS011;37815;52.692;6.226;2022-08-04T03:34:24;4.60;;;2.38;;
51738;SDS011;37815;52.692;6.226;2022-08-04T04:02:02;4.05;;;2.03;;
51738;SDS011;37815;52.692;6.226;2022-08-04T04:18:36;6.80;;;2.88;;
51738;SDS011;37815;52.692;6.226;2022-08-04T04:45:33;3.97;;;2.30;;
51738;SDS011;37815;52.692;6.226;2022-08-04T04:55:53;3.78;;;2.30;;
51738;SDS011;37815;52.692;6.226;2022-08-04T05:06:16;5.40;;;2.70;;
51738;SDS011;37815;52.692;6.226;2022-08-04T05:16:39;3.88;;;1.92;;
51738;SDS011;37815;52.692;6.226;2022-08-04T05:21:49;3.97;;;2.20;;
51738;SDS011;37815;52.692;6.226;2022-08-04T05:27:04;4.78;;;2.33;;
51738;SDS011;37815;52.692;6.226;2022-08-04T05:32:12;3.70;;;2.53;;
51738;SDS011;37815;52.692;6.226;2022-08-04T05:37:16;3.20;;;2.25;;
51738;SDS011;37815;52.692;6.226;2022-08-04T05:42:19;3.28;;;2.08;;
51738;SDS011;37815;52.692;6.226;2022-08-04T05:47:21;3.80;;;2.53;;
51738;SDS011;37815;52.692;6.226;2022-08-04T05:53:21;2.67;;;2.05;;
51738;SDS011;37815;52.692;6.226;2022-08-04T05:59:22;3.60;;;2.20;;
51738;SDS011;37815;52.692;6.226;2022-08-04T06:05:22;2.70;;;2.30;;
51738;SDS011;37815;52.692;6.226;2022-08-04T06:11:24;6.18;;;2.22;;
51738;SDS011;37815;52.692;6.226;2022-08-04T06:17:25;3.40;;;2.05;;
51738;SDS011;37815;52.692;6.226;2022-08-04T06:23:30;3.75;;;2.15;;
51738;SDS011;37815;52.692;6.226;2022-08-04T06:29:30;3.33;;;2.33;;
51738;SDS011;37815;52.692;6.226;2022-08-04T06:35:31;4.63;;;2.30;;
51738;SDS011;37815;52.692;6.226;2022-08-04T06:41:31;3.15;;;2.40;;
51738;SDS011;37815;52.692;6.226;2022-08-04T06:47:32;2.90;;;2.00;;
51738;SDS011;37815;52.692;6.226;2022-08-04T06:53:32;5.22;;;2.47;;
51738;SDS011;37815;52.692;6.226;2022-08-04T06:59:34;4.55;;;3.13;;
51738;SDS011;37815;52.692;6.226;2022-08-04T07:05:40;5.75;;;3.25;;
51738;SDS011;37815;52.692;6.226;2022-08-04T07:11:42;5.57;;;2.50;;
51738;SDS011;37815;52.692;6.226;2022-08-04T07:17:44;5.00;;;2.78;;
51738;SDS011;37815;52.692;6.226;2022-08-04T07:23:44;3.58;;;2.50;;
51738;SDS011;37815;52.692;6.226;2022-08-04T07:29:45;5.07;;;2.67;;
51738;SDS011;37815;52.692;6.226;2022-08-04T07:46:46;4.07;;;2.72;;
51738;SDS011;37815;52.692;6.226;2022-08-04T07:51:47;5.25;;;2.47;;
51738;SDS011;37815;52.692;6.226;2022-08-04T07:57:47;6.07;;;3.08;;
51738;SDS011;37815;52.692;6.226;2022-08-04T08:03:48;4.15;;;2.42;;
51738;SDS011;37815;52.692;6.226;2022-08-04T08:09:48;4.22;;;2.35;;
51738;SDS011;37815;52.692;6.226;2022-08-04T08:15:49;5.25;;;2.58;;
51738;SDS011;37815;52.692;6.226;2022-08-04T08:21:49;3.70;;;2.25;;
51738;SDS011;37815;52.692;6.226;2022-08-04T08:27:50;3.90;;;2.22;;
51738;SDS011;37815;52.692;6.226;2022-08-04T08:33:51;5.05;;;2.50;;
51738;SDS011;37815;52.692;6.226;2022-08-04T08:39:58;3.65;;;2.58;;
51738;SDS011;37815;52.692;6.226;2022-08-04T09:19:35;4.63;;;2.58;;
51738;SDS011;37815;52.692;6.226;2022-08-04T09:25:38;2.85;;;2.10;;
51738;SDS011;37815;52.692;6.226;2022-08-04T09:31:54;2.83;;;2.33;;
51738;SDS011;37815;52.692;6.226;2022-08-04T10:00:07;3.90;;;2.00;;
51738;SDS011;37815;52.692;6.226;2022-08-04T10:22:44;5.80;;;2.60;;
51738;SDS011;37815;52.692;6.226;2022-08-04T10:28:05;5.85;;;2.38;;
51738;SDS011;37815;52.692;6.226;2022-08-04T10:34:21;2.95;;;1.70;;
51738;SDS011;37815;52.692;6.226;2022-08-04T10:40:39;2.35;;;1.83;;
51738;SDS011;37815;52.692;6.226;2022-08-04T10:46:28;2.28;;;1.52;;
51738;SDS011;37815;52.692;6.226;2022-08-04T10:58:08;3.55;;;1.50;;
51738;SDS011;37815;52.692;6.226;2022-08-04T11:03:11;2.97;;;1.60;;
51738;SDS011;37815;52.692;6.226;2022-08-04T11:08:24;3.38;;;1.98;;
51738;SDS011;37815;52.692;6.226;2022-08-04T11:14:18;3.22;;;1.98;;
51738;SDS011;37815;52.692;6.226;2022-08-04T11:24:43;3.28;;;1.65;;
51738;SDS011;37815;52.692;6.226;2022-08-04T11:30:03;1.40;;;1.30;;
51738;SDS011;37815;52.692;6.226;2022-08-04T11:35:06;2.65;;;1.55;;
51738;SDS011;37815;52.692;6.226;2022-08-04T11:40:22;3.00;;;1.63;;
51738;SDS011;37815;52.692;6.226;2022-08-04T11:45:38;3.33;;;1.60;;
51738;SDS011;37815;52.692;6.226;2022-08-04T11:50:46;3.33;;;1.50;;
51738;SDS011;37815;52.692;6.226;2022-08-04T11:56:15;2.70;;;1.58;;
51738;SDS011;37815;52.692;6.226;2022-08-04T12:06:55;3.58;;;1.33;;
51738;SDS011;37815;52.692;6.226;2022-08-04T12:12:27;2.35;;;1.52;;
51738;SDS011;37815;52.692;6.226;2022-08-04T12:17:42;2.33;;;1.33;;
51738;SDS011;37815;52.692;6.226;2022-08-04T12:23:03;3.97;;;1.45;;
51738;SDS011;37815;52.692;6.226;2022-08-04T12:39:11;2.33;;;1.30;;
51738;SDS011;37815;52.692;6.226;2022-08-04T12:44:20;1.47;;;1.20;;
51738;SDS011;37815;52.692;6.226;2022-08-04T12:49:28;1.85;;;1.38;;
51738;SDS011;37815;52.692;6.226;2022-08-04T12:54:46;2.20;;;1.27;;
51738;SDS011;37815;52.692;6.226;2022-08-04T13:00:06;2.05;;;1.20;;
51738;SDS011;37815;52.692;6.226;2022-08-04T13:05:26;1.92;;;1.10;;
51738;SDS011;37815;52.692;6.226;2022-08-04T13:10:41;2.63;;;1.00;;
51738;SDS011;37815;52.692;6.226;2022-08-04T13:15:55;3.00;;;1.25;;
51738;SDS011;37815;52.692;6.226;2022-08-04T13:21:20;4.43;;;1.30;;
51738;SDS011;37815;52.692;6.226;2022-08-04T13:26:23;2.45;;;1.23;;
51738;SDS011;37815;52.692;6.226;2022-08-04T13:31:26;3.35;;;1.23;;
51738;SDS011;37815;52.692;6.226;2022-08-04T13:36:28;3.03;;;1.60;;
51738;SDS011;37815;52.692;6.226;2022-08-04T13:41:37;2.85;;;1.30;;
51738;SDS011;37815;52.692;6.226;2022-08-04T13:46:49;2.60;;;1.48;;
51738;SDS011;37815;52.692;6.226;2022-08-04T13:51:56;1.38;;;1.20;;
51738;SDS011;37815;52.692;6.226;2022-08-04T13:57:04;2.35;;;1.13;;
51738;SDS011;37815;52.692;6.226;2022-08-04T14:02:13;2.03;;;1.10;;
51738;SDS011;37815;52.692;6.226;2022-08-04T14:07:28;2.45;;;1.10;;
51738;SDS011;37815;52.692;6.226;2022-08-04T14:12:31;3.10;;;1.10;;
51738;SDS011;37815;52.692;6.226;2022-08-04T14:17:32;2.45;;;1.33;;
51738;SDS011;37815;52.692;6.226;2022-08-04T14:22:34;2.67;;;1.30;;
51738;SDS011;37815;52.692;6.226;2022-08-04T14:33:09;4.35;;;1.45;;
51738;SDS011;37815;52.692;6.226;2022-08-04T14:38:10;1.10;;;1.00;;
51738;SDS011;37815;52.692;6.226;2022-08-04T14:43:12;1.13;;;1.00;;
51738;SDS011;37815;52.692;6.226;2022-08-04T14:48:16;2.00;;;1.00;;
51738;SDS011;37815;52.692;6.226;2022-08-04T14:53:20;2.88;;;1.30;;
51738;SDS011;37815;52.692;6.226;2022-08-04T14:58:26;1.08;;;0.98;;
51738;SDS011;37815;52.692;6.226;2022-08-04T15:03:31;1.65;;;1.20;;
51738;SDS011;37815;52.692;6.226;2022-08-04T15:08:32;2.13;;;1.15;;
51738;SDS011;37815;52.692;6.226;2022-08-04T15:13:33;2.15;;;1.13;;
51738;SDS011;37815;52.692;6.226;2022-08-04T15:18:37;1.20;;;1.10;;
51738;SDS011;37815;52.692;6.226;2022-08-04T15:23:38;3.15;;;1.30;;
51738;SDS011;37815;52.692;6.226;2022-08-04T15:28:40;1.52;;;1.10;;
51738;SDS011;37815;52.692;6.226;2022-08-04T15:33:43;1.45;;;0.98;;
51738;SDS011;37815;52.692;6.226;2022-08-04T15:39:02;1.77;;;1.00;;
51738;SDS011;37815;52.692;6.226;2022-08-04T15:49:22;2.55;;;1.00;;
51738;SDS011;37815;52.692;6.226;2022-08-04T15:55:31;1.17;;;1.05;;
51738;SDS011;37815;52.692;6.226;2022-08-04T16:01:31;1.52;;;1.20;;
51738;SDS011;37815;52.692;6.226;2022-08-04T16:08:14;1.27;;;1.00;;
51738;SDS011;37815;52.692;6.226;2022-08-04T16:13:35;0.93;;;0.80;;
51738;SDS011;37815;52.692;6.226;2022-08-04T16:19:44;2.88;;;1.15;;
51738;SDS011;37815;52.692;6.226;2022-08-04T16:25:44;1.40;;;0.82;;
51738;SDS011;37815;52.692;6.226;2022-08-04T16:32:05;0.95;;;0.80;;
51738;SDS011;37815;52.692;6.226;2022-08-04T16:42:52;1.48;;;0.77;;
51738;SDS011;37815;52.692;6.226;2022-08-04T16:49:04;0.95;;;0.80;;
51738;SDS011;37815;52.692;6.226;2022-08-04T19:34:46;3.00;;;1.30;;
51738;SDS011;37815;52.692;6.226;2022-08-04T19:39:47;1.65;;;1.15;;
51738;SDS011;37815;52.692;6.226;2022-08-04T19:44:48;2.03;;;1.23;;
51738;SDS011;37815;52.692;6.226;2022-08-04T19:50:48;3.05;;;1.15;;
51738;SDS011;37815;52.692;6.226;2022-08-04T19:55:50;2.00;;;1.30;;
51738;SDS011;37815;52.692;6.226;2022-08-04T20:00:55;1.35;;;1.05;;
51738;SDS011;37815;52.692;6.226;2022-08-04T20:06:56;3.92;;;1.30;;
51738;SDS011;37815;52.692;6.226;2022-08-04T20:12:56;1.67;;;1.13;;
51738;SDS011;37815;52.692;6.226;2022-08-04T20:18:57;1.70;;;1.20;;
51738;SDS011;37815;52.692;6.226;2022-08-04T20:24:57;2.53;;;1.30;;
51738;SDS011;37815;52.692;6.226;2022-08-04T20:30:18;3.97;;;1.27;;
51738;SDS011;37815;52.692;6.226;2022-08-04T20:36:18;2.42;;;1.20;;
51738;SDS011;37815;52.692;6.226;2022-08-04T20:42:19;2.50;;;1.40;;
51738;SDS011;37815;52.692;6.226;2022-08-04T20:48:19;1.88;;;1.33;;
51738;SDS011;37815;52.692;6.226;2022-08-04T20:54:20;1.80;;;1.27;;
51738;SDS011;37815;52.692;6.226;2022-08-04T21:00:20;2.70;;;1.20;;
51738;SDS011;37815;52.692;6.226;2022-08-04T21:05:37;1.70;;;1.20;;
51738;SDS011;37815;52.692;6.226;2022-08-04T21:11:37;1.80;;;1.25;;
51738;SDS011;37815;52.692;6.226;2022-08-04T21:17:37;1.77;;;1.42;;
51738;SDS011;37815;52.692;6.226;2022-08-04T21:23:38;3.63;;;1.40;;
51738;SDS011;37815;52.692;6.226;2022-08-04T21:29:38;3.20;;;1.30;;
51738;SDS011;37815;52.692;6.226;2022-08-04T21:41:21;1.80;;;1.67;;
51738;SDS011;37815;52.692;6.226;2022-08-04T21:46:22;3.38;;;1.38;;
51738;SDS011;37815;52.692;6.226;2022-08-04T21:51:24;2.42;;;1.13;;
51738;SDS011;37815;52.692;6.226;2022-08-04T21:56:26;2.42;;;1.40;;
51738;SDS011;37815;52.692;6.226;2022-08-04T22:01:26;2.38;;;1.27;;
51738;SDS011;37815;52.692;6.226;2022-08-04T22:06:27;1.65;;;1.40;;
51738;SDS011;37815;52.692;6.226;2022-08-04T22:11:32;1.90;;;1.20;;
51738;SDS011;37815;52.692;6.226;2022-08-04T22:16:35;2.17;;;1.42;;
51738;SDS011;37815;52.692;6.226;2022-08-04T22:21:36;1.85;;;1.30;;
51738;SDS011;37815;52.692;6.226;2022-08-04T22:26:37;2.38;;;1.38;;
51738;SDS011;37815;52.692;6.226;2022-08-04T22:31:38;2.40;;;1.17;;
51738;SDS011;37815;52.692;6.226;2022-08-04T22:36:39;2.75;;;1.17;;
51738;SDS011;37815;52.692;6.226;2022-08-04T22:41:39;2.00;;;1.10;;
51738;SDS011;37815;52.692;6.226;2022-08-04T22:46:40;2.55;;;1.38;;
51738;SDS011;37815;52.692;6.226;2022-08-04T22:51:41;3.70;;;1.55;;
51738;SDS011;37815;52.692;6.226;2022-08-04T22:56:41;2.13;;;1.20;;
51738;SDS011;37815;52.692;6.226;2022-08-04T23:01:42;2.35;;;1.40;;
51738;SDS011;37815;52.692;6.226;2022-08-04T23:06:43;7.78;;;1.65;;
51738;SDS011;37815;52.692;6.226;2022-08-04T23:12:43;2.15;;;1.30;;
51738;SDS011;37815;52.692;6.226;2022-08-04T23:18:44;2.70;;;1.50;;
51738;SDS011;37815;52.692;6.226;2022-08-04T23:24:44;1.55;;;1.20;;
51738;SDS011;37815;52.692;6.226;2022-08-04T23:30:45;3.20;;;1.55;;
51738;SDS011;37815;52.692;6.226;2022-08-04T23:36:46;2.17;;;1.40;;
51738;SDS011;37815;52.692;6.226;2022-08-04T23:42:46;4.03;;;1.60;;
51738;SDS011;37815;52.692;6.226;2022-08-04T23:48:46;3.17;;;1.50;;
51738;SDS011;37815;52.692;6.226;2022-08-04T23:54:50;3.83;;;1.30;;
